SBGOSBMQ

Guest
Details From SBGO - Santo Genoveva
To SBMQ - MACAPA
Flight Number -
Tags decoded
Created
Modified
Stats Distance 1,026 nm / 1,900 km
Max Altitude 0 ft / 0 m
Waypoints 3
Social Downloads 0
Likes 0
Share VATSIM

Download

Looking for another format? Having issues loading an existing format? Contact us
Advertisement - Login to hide

Notes

Requested: SBGO SBPJ SBMQ

Route

SBGO SBPJ SBMQ

ID Type Via Altitude Latitude Longitude Leg Dist Tot Dist Heading (true) Name
O SBGO APT - 0 ft / 0 m -16.63203˚ -49.22069˚ - 0 nm - Santo Genoveva
SBPJ APT - 0 ft / 0 m -10.29152˚ -48.35697˚ 384 nm 384 nm 8° / 7° Tocantins
O SBMQ APT - 0 ft / 0 m 0.05064˚ -51.07216˚ 641 nm 1026 nm 345° / 345° MACAPA

Altitude Profile

Advertisement - Login to hide

Weather


0- 5 10 15 20 25 30 35+ Temperature / ° C

Clouds and Precipitation
Forecast for 2018-05-20 18:00 UTC. Updated 5 hours ago

Ground ~20,000 ft ~40,000 ft Winds

SBGO

Details ICAO SBGO (GYN)
Name Santo Genoveva
Region Brazil
Timezone America/Sao_Paulo (UTC-3.0)
Stats Elevation 2,450 ft / 747 m (AMSL)
Location -16.632032° -49.220686°
Runways 1
Magnetic Variation 21.038° W

METAR

SBGO 202100Z 07005KT CAVOK 16/12 Q1017

Decode

TAF

TAF SBGO 201600Z 2018/2118 25007KT 9999 FEW020 TX29/2018Z TN16/2108Z BECMG 2020/2022 SCT030 BECMG 2100/2102 00000KT CAVOK PROB30 2109/2112 BKN012 BECMG 2112/2114 01006KT 9999 FEW040 BECMG 2116/2118 20003KT SCT045 RMK PEW

Decode

Departure Runways

ID Width Length Bearing (true) Bearing (mag) Surface Threshold Offset Overrun Length
14 148 ft / 45 m 8,208 ft / 2,502 m 120.42° 141.46° Asphalt 0 ft / 0 m 0 ft / 0 m
32 148 ft / 45 m 8,208 ft / 2,502 m 300.41° 321.45° Asphalt 980 ft / 299 m 0 ft / 0 m

SBMQ

Details ICAO SBMQ (MCP)
Name MACAPA
Region Brazil
Timezone America/Belem (UTC-3.0)
Stats Elevation 56 ft / 17 m (AMSL)
Location 0.050639° -51.072162°
Runways 1
Magnetic Variation 19.368° W

METAR

SBMQ 202100Z 06010KT 9999 SCT023 29/25 Q1009

Decode

TAF

TAF SBMQ 201600Z 2018/2118 06010KT 9999 SCT020 FEW025TCU TN25/2108Z TX34/2117Z BECMG 2022/2024 03005KT FEW015 BECMG 2106/2108 36003KT BECMG 2111/2113 04005KT SCT017 BECMG 2115/2117 07008KT SCT025 FEW030TCU RMK PEH

Decode

Destination Runways

ID Width Length Bearing (true) Bearing (mag) Surface Threshold Offset Overrun Length
08 148 ft / 45 m 6,917 ft / 2,108 m 57.22° 76.59° Asphalt 0 ft / 0 m 219 ft / 67 m
26 148 ft / 45 m 6,917 ft / 2,108 m 237.22° 256.59° Asphalt 0 ft / 0 m 219 ft / 67 m

Popular Alternatives